sensor_id;sensor_type;location;lat;lon;timestamp;temperature;humidity
60868;DHT22;46702;48.370;10.794;2023-06-10T00:01:48;16.30;99.90
60868;DHT22;46702;48.370;10.794;2023-06-10T00:04:14;16.20;99.90
60868;DHT22;46702;48.370;10.794;2023-06-10T00:06:41;16.20;99.90
60868;DHT22;46702;48.370;10.794;2023-06-10T00:09:07;16.10;99.90
60868;DHT22;46702;48.370;10.794;2023-06-10T00:11:36;16.10;99.90
60868;DHT22;46702;48.370;10.794;2023-06-10T00:14:03;16.00;99.90
60868;DHT22;46702;48.370;10.794;2023-06-10T00:16:29;15.90;99.90
60868;DHT22;46702;48.370;10.794;2023-06-10T00:18:54;15.90;99.90
60868;DHT22;46702;48.370;10.794;2023-06-10T00:21:34;15.80;99.90
60868;DHT22;46702;48.370;10.794;2023-06-10T00:24:06;15.80;99.90
60868;DHT22;46702;48.370;10.794;2023-06-10T00:26:33;15.70;99.90
60868;DHT22;46702;48.370;10.794;2023-06-10T00:28:59;15.60;99.90
60868;DHT22;46702;48.370;10.794;2023-06-10T00:31:24;15.50;99.90
60868;DHT22;46702;48.370;10.794;2023-06-10T00:33:52;15.60;99.90
60868;DHT22;46702;48.370;10.794;2023-06-10T00:36:17;15.60;99.90
60868;DHT22;46702;48.370;10.794;2023-06-10T00:38:43;15.50;99.90
60868;DHT22;46702;48.370;10.794;2023-06-10T00:41:09;15.50;99.90
60868;DHT22;46702;48.370;10.794;2023-06-10T00:43:34;15.60;99.90
60868;DHT22;46702;48.370;10.794;2023-06-10T00:46:00;15.50;99.90
60868;DHT22;46702;48.370;10.794;2023-06-10T00:48:27;15.60;99.90
60868;DHT22;46702;48.370;10.794;2023-06-10T00:50:53;15.60;99.90
60868;DHT22;46702;48.370;10.794;2023-06-10T00:53:19;15.70;99.90
60868;DHT22;46702;48.370;10.794;2023-06-10T00:55:46;15.60;99.90
60868;DHT22;46702;48.370;10.794;2023-06-10T00:58:12;15.50;99.90
60868;DHT22;46702;48.370;10.794;2023-06-10T01:00:38;15.30;99.90
60868;DHT22;46702;48.370;10.794;2023-06-10T01:03:04;15.30;99.90
60868;DHT22;46702;48.370;10.794;2023-06-10T01:05:34;15.30;99.90
60868;DHT22;46702;48.370;10.794;2023-06-10T01:08:18;15.20;99.90
60868;DHT22;46702;48.370;10.794;2023-06-10T01:10:53;15.20;99.90
60868;DHT22;46702;48.370;10.794;2023-06-10T01:13:22;15.20;99.90
60868;DHT22;46702;48.370;10.794;2023-06-10T01:15:50;15.30;99.90
60868;DHT22;46702;48.370;10.794;2023-06-10T01:18:17;15.30;99.90
60868;DHT22;46702;48.370;10.794;2023-06-10T01:20:43;15.30;99.90
60868;DHT22;46702;48.370;10.794;2023-06-10T01:23:10;15.10;99.90
60868;DHT22;46702;48.370;10.794;2023-06-10T01:25:39;15.00;99.90
60868;DHT22;46702;48.370;10.794;2023-06-10T01:33:07;15.00;99.90
60868;DHT22;46702;48.370;10.794;2023-06-10T01:35:36;14.90;99.90
60868;DHT22;46702;48.370;10.794;2023-06-10T01:38:03;14.90;99.90
60868;DHT22;46702;48.370;10.794;2023-06-10T01:40:29;15.00;99.90
60868;DHT22;46702;48.370;10.794;2023-06-10T01:42:55;15.10;99.90
60868;DHT22;46702;48.370;10.794;2023-06-10T01:45:21;15.10;99.90
60868;DHT22;46702;48.370;10.794;2023-06-10T01:47:47;15.00;99.90
60868;DHT22;46702;48.370;10.794;2023-06-10T01:50:12;14.90;99.90
60868;DHT22;46702;48.370;10.794;2023-06-10T01:52:38;15.00;99.90
60868;DHT22;46702;48.370;10.794;2023-06-10T01:55:04;15.00;99.90
60868;DHT22;46702;48.370;10.794;2023-06-10T01:57:30;15.00;99.90
60868;DHT22;46702;48.370;10.794;2023-06-10T01:59:55;14.90;99.90
60868;DHT22;46702;48.370;10.794;2023-06-10T02:02:21;14.90;99.90
60868;DHT22;46702;48.370;10.794;2023-06-10T02:04:47;14.90;99.90
60868;DHT22;46702;48.370;10.794;2023-06-10T02:07:13;14.80;99.90
60868;DHT22;46702;48.370;10.794;2023-06-10T02:09:38;14.80;99.90
60868;DHT22;46702;48.370;10.794;2023-06-10T02:12:05;14.80;99.90
60868;DHT22;46702;48.370;10.794;2023-06-10T02:14:32;14.90;99.90
60868;DHT22;46702;48.370;10.794;2023-06-10T02:16:58;15.00;99.90
60868;DHT22;46702;48.370;10.794;2023-06-10T02:19:24;15.00;99.90
60868;DHT22;46702;48.370;10.794;2023-06-10T02:21:52;15.00;99.90
60868;DHT22;46702;48.370;10.794;2023-06-10T02:24:18;15.00;99.90
60868;DHT22;46702;48.370;10.794;2023-06-10T02:26:43;14.90;99.90
60868;DHT22;46702;48.370;10.794;2023-06-10T02:29:09;15.00;99.90
60868;DHT22;46702;48.370;10.794;2023-06-10T02:31:35;15.00;99.90
60868;DHT22;46702;48.370;10.794;2023-06-10T02:34:01;15.00;99.90
60868;DHT22;46702;48.370;10.794;2023-06-10T02:36:27;15.00;99.90
60868;DHT22;46702;48.370;10.794;2023-06-10T02:38:53;15.00;99.90
60868;DHT22;46702;48.370;10.794;2023-06-10T02:41:19;14.90;99.90
60868;DHT22;46702;48.370;10.794;2023-06-10T02:43:44;14.80;99.90
60868;DHT22;46702;48.370;10.794;2023-06-10T02:46:10;14.80;99.90
60868;DHT22;46702;48.370;10.794;2023-06-10T02:48:42;14.70;99.90
60868;DHT22;46702;48.370;10.794;2023-06-10T02:51:11;14.60;99.90
60868;DHT22;46702;48.370;10.794;2023-06-10T02:53:36;14.50;99.90
60868;DHT22;46702;48.370;10.794;2023-06-10T02:56:02;14.50;99.90
60868;DHT22;46702;48.370;10.794;2023-06-10T02:58:28;14.50;99.90
60868;DHT22;46702;48.370;10.794;2023-06-10T03:00:54;14.50;99.90
60868;DHT22;46702;48.370;10.794;2023-06-10T03:03:20;14.50;99.90
60868;DHT22;46702;48.370;10.794;2023-06-10T03:05:47;14.60;99.90
60868;DHT22;46702;48.370;10.794;2023-06-10T03:08:13;14.50;99.90
60868;DHT22;46702;48.370;10.794;2023-06-10T03:10:39;14.70;99.90
60868;DHT22;46702;48.370;10.794;2023-06-10T03:13:04;14.80;99.90
60868;DHT22;46702;48.370;10.794;2023-06-10T03:15:30;14.90;99.90
60868;DHT22;46702;48.370;10.794;2023-06-10T03:17:59;14.90;99.90
60868;DHT22;46702;48.370;10.794;2023-06-10T03:20:25;14.80;99.90
60868;DHT22;46702;48.370;10.794;2023-06-10T03:22:53;14.80;99.90
60868;DHT22;46702;48.370;10.794;2023-06-10T03:25:18;14.70;99.90
60868;DHT22;46702;48.370;10.794;2023-06-10T03:27:46;14.60;99.90
60868;DHT22;46702;48.370;10.794;2023-06-10T03:30:13;14.60;99.90
60868;DHT22;46702;48.370;10.794;2023-06-10T03:32:39;14.50;99.90
60868;DHT22;46702;48.370;10.794;2023-06-10T03:35:06;14.50;99.90
60868;DHT22;46702;48.370;10.794;2023-06-10T03:37:32;14.40;99.90
60868;DHT22;46702;48.370;10.794;2023-06-10T03:39:58;14.50;99.90
60868;DHT22;46702;48.370;10.794;2023-06-10T03:42:24;14.60;99.90
60868;DHT22;46702;48.370;10.794;2023-06-10T03:44:50;14.60;99.90
60868;DHT22;46702;48.370;10.794;2023-06-10T03:47:15;14.60;99.90
60868;DHT22;46702;48.370;10.794;2023-06-10T03:49:41;14.60;99.90
60868;DHT22;46702;48.370;10.794;2023-06-10T03:52:07;14.60;99.90
60868;DHT22;46702;48.370;10.794;2023-06-10T03:54:32;14.70;99.90
60868;DHT22;46702;48.370;10.794;2023-06-10T03:57:00;14.70;99.90
60868;DHT22;46702;48.370;10.794;2023-06-10T03:59:26;14.70;99.90
60868;DHT22;46702;48.370;10.794;2023-06-10T04:01:52;14.70;99.90
60868;DHT22;46702;48.370;10.794;2023-06-10T04:04:17;14.70;99.90
60868;DHT22;46702;48.370;10.794;2023-06-10T04:06:43;14.60;99.90
60868;DHT22;46702;48.370;10.794;2023-06-10T04:09:10;14.70;99.90
60868;DHT22;46702;48.370;10.794;2023-06-10T04:11:36;14.70;99.90
60868;DHT22;46702;48.370;10.794;2023-06-10T04:14:02;14.60;99.90
60868;DHT22;46702;48.370;10.794;2023-06-10T04:16:28;14.60;99.90
60868;DHT22;46702;48.370;10.794;2023-06-10T04:18:54;14.50;99.90
60868;DHT22;46702;48.370;10.794;2023-06-10T04:21:20;14.40;99.90
60868;DHT22;46702;48.370;10.794;2023-06-10T04:23:47;14.40;99.90
60868;DHT22;46702;48.370;10.794;2023-06-10T04:26:13;14.50;99.90
60868;DHT22;46702;48.370;10.794;2023-06-10T04:28:38;14.60;99.90
60868;DHT22;46702;48.370;10.794;2023-06-10T04:31:04;14.60;99.90
60868;DHT22;46702;48.370;10.794;2023-06-10T04:33:30;14.70;99.90
60868;DHT22;46702;48.370;10.794;2023-06-10T04:35:56;14.80;99.90
60868;DHT22;46702;48.370;10.794;2023-06-10T04:38:23;14.90;99.90
60868;DHT22;46702;48.370;10.794;2023-06-10T04:40:48;14.90;99.90
60868;DHT22;46702;48.370;10.794;2023-06-10T04:43:14;15.10;99.90
60868;DHT22;46702;48.370;10.794;2023-06-10T04:45:40;15.30;99.90
60868;DHT22;46702;48.370;10.794;2023-06-10T04:48:06;15.30;99.90
60868;DHT22;46702;48.370;10.794;2023-06-10T04:50:33;15.30;99.90
60868;DHT22;46702;48.370;10.794;2023-06-10T04:53:01;15.40;99.90
60868;DHT22;46702;48.370;10.794;2023-06-10T04:55:27;15.50;99.90
60868;DHT22;46702;48.370;10.794;2023-06-10T04:57:53;15.60;99.90
60868;DHT22;46702;48.370;10.794;2023-06-10T05:00:19;15.70;99.90
60868;DHT22;46702;48.370;10.794;2023-06-10T05:02:44;15.70;99.90
60868;DHT22;46702;48.370;10.794;2023-06-10T05:05:10;15.80;99.90
60868;DHT22;46702;48.370;10.794;2023-06-10T05:07:36;15.90;99.90
60868;DHT22;46702;48.370;10.794;2023-06-10T05:10:02;16.00;99.90
60868;DHT22;46702;48.370;10.794;2023-06-10T05:12:28;16.10;99.90
60868;DHT22;46702;48.370;10.794;2023-06-10T05:14:54;16.20;99.90
60868;DHT22;46702;48.370;10.794;2023-06-10T05:17:20;16.30;99.90
60868;DHT22;46702;48.370;10.794;2023-06-10T05:19:46;16.40;99.90
60868;DHT22;46702;48.370;10.794;2023-06-10T05:22:12;16.50;99.90
60868;DHT22;46702;48.370;10.794;2023-06-10T05:24:38;16.40;99.90
60868;DHT22;46702;48.370;10.794;2023-06-10T05:27:04;16.50;99.90
60868;DHT22;46702;48.370;10.794;2023-06-10T05:29:32;16.60;99.90
60868;DHT22;46702;48.370;10.794;2023-06-10T05:31:59;16.70;99.90
60868;DHT22;46702;48.370;10.794;2023-06-10T05:34:31;16.80;99.90
60868;DHT22;46702;48.370;10.794;2023-06-10T05:36:57;16.90;99.90
60868;DHT22;46702;48.370;10.794;2023-06-10T05:39:23;17.00;99.90
60868;DHT22;46702;48.370;10.794;2023-06-10T05:41:48;17.10;99.90
60868;DHT22;46702;48.370;10.794;2023-06-10T05:44:17;17.20;99.90
60868;DHT22;46702;48.370;10.794;2023-06-10T05:46:42;17.40;99.90
60868;DHT22;46702;48.370;10.794;2023-06-10T05:49:08;17.60;99.90
60868;DHT22;46702;48.370;10.794;2023-06-10T05:51:34;17.60;99.90
60868;DHT22;46702;48.370;10.794;2023-06-10T05:54:00;17.80;99.90
60868;DHT22;46702;48.370;10.794;2023-06-10T05:56:25;17.80;99.90
60868;DHT22;46702;48.370;10.794;2023-06-10T05:58:51;17.80;99.90
60868;DHT22;46702;48.370;10.794;2023-06-10T06:01:17;17.90;99.90
60868;DHT22;46702;48.370;10.794;2023-06-10T06:03:43;18.00;99.90
60868;DHT22;46702;48.370;10.794;2023-06-10T06:06:09;18.10;99.90
60868;DHT22;46702;48.370;10.794;2023-06-10T06:08:35;18.20;99.90
60868;DHT22;46702;48.370;10.794;2023-06-10T06:11:00;18.30;99.90
60868;DHT22;46702;48.370;10.794;2023-06-10T06:13:26;18.40;99.90
60868;DHT22;46702;48.370;10.794;2023-06-10T06:15:52;18.40;99.90
60868;DHT22;46702;48.370;10.794;2023-06-10T06:18:18;18.60;99.90
60868;DHT22;46702;48.370;10.794;2023-06-10T06:20:44;18.50;99.90
60868;DHT22;46702;48.370;10.794;2023-06-10T06:23:10;18.60;99.90
60868;DHT22;46702;48.370;10.794;2023-06-10T06:25:36;18.70;99.90
60868;DHT22;46702;48.370;10.794;2023-06-10T06:28:10;18.70;99.90
60868;DHT22;46702;48.370;10.794;2023-06-10T06:30:36;18.90;99.90
60868;DHT22;46702;48.370;10.794;2023-06-10T06:33:02;19.00;99.90
60868;DHT22;46702;48.370;10.794;2023-06-10T06:35:31;19.00;99.90
60868;DHT22;46702;48.370;10.794;2023-06-10T06:37:57;19.10;99.90
60868;DHT22;46702;48.370;10.794;2023-06-10T06:40:24;19.20;99.90
60868;DHT22;46702;48.370;10.794;2023-06-10T06:42:49;19.30;99.90
60868;DHT22;46702;48.370;10.794;2023-06-10T06:45:15;19.50;99.90
60868;DHT22;46702;48.370;10.794;2023-06-10T06:47:41;19.50;99.90
60868;DHT22;46702;48.370;10.794;2023-06-10T06:50:07;19.70;99.90
60868;DHT22;46702;48.370;10.794;2023-06-10T06:52:32;19.70;99.90
60868;DHT22;46702;48.370;10.794;2023-06-10T06:54:58;20.00;99.90
60868;DHT22;46702;48.370;10.794;2023-06-10T06:57:24;20.00;99.90
60868;DHT22;46702;48.370;10.794;2023-06-10T06:59:49;20.00;99.90
60868;DHT22;46702;48.370;10.794;2023-06-10T07:02:15;20.10;99.90
60868;DHT22;46702;48.370;10.794;2023-06-10T07:04:41;20.00;99.90
60868;DHT22;46702;48.370;10.794;2023-06-10T07:07:07;20.10;99.90
60868;DHT22;46702;48.370;10.794;2023-06-10T07:09:37;20.20;99.90
60868;DHT22;46702;48.370;10.794;2023-06-10T07:12:03;20.30;99.90
60868;DHT22;46702;48.370;10.794;2023-06-10T07:14:29;20.40;99.90
60868;DHT22;46702;48.370;10.794;2023-06-10T07:16:54;20.60;99.90
60868;DHT22;46702;48.370;10.794;2023-06-10T07:19:20;20.50;99.90
60868;DHT22;46702;48.370;10.794;2023-06-10T07:21:46;20.50;99.90
60868;DHT22;46702;48.370;10.794;2023-06-10T07:24:11;20.50;99.90
60868;DHT22;46702;48.370;10.794;2023-06-10T07:26:37;20.60;99.90
60868;DHT22;46702;48.370;10.794;2023-06-10T07:29:03;20.50;99.90
60868;DHT22;46702;48.370;10.794;2023-06-10T07:31:28;20.60;99.90
60868;DHT22;46702;48.370;10.794;2023-06-10T07:33:54;20.70;99.90
60868;DHT22;46702;48.370;10.794;2023-06-10T07:36:20;20.80;99.90
60868;DHT22;46702;48.370;10.794;2023-06-10T07:38:45;20.90;99.90
60868;DHT22;46702;48.370;10.794;2023-06-10T07:41:11;21.00;99.90
60868;DHT22;46702;48.370;10.794;2023-06-10T07:43:37;21.00;99.90
60868;DHT22;46702;48.370;10.794;2023-06-10T07:46:03;21.10;99.90
60868;DHT22;46702;48.370;10.794;2023-06-10T07:48:31;21.30;99.90
60868;DHT22;46702;48.370;10.794;2023-06-10T07:50:56;21.30;99.90
60868;DHT22;46702;48.370;10.794;2023-06-10T07:53:22;21.40;99.90
60868;DHT22;46702;48.370;10.794;2023-06-10T07:55:48;21.40;99.90
60868;DHT22;46702;48.370;10.794;2023-06-10T07:58:14;21.30;99.90
60868;DHT22;46702;48.370;10.794;2023-06-10T08:00:42;21.40;99.90
60868;DHT22;46702;48.370;10.794;2023-06-10T08:03:08;21.70;99.90
60868;DHT22;46702;48.370;10.794;2023-06-10T08:05:34;21.90;99.90
60868;DHT22;46702;48.370;10.794;2023-06-10T08:07:59;21.80;99.90
60868;DHT22;46702;48.370;10.794;2023-06-10T08:10:25;21.90;99.90
60868;DHT22;46702;48.370;10.794;2023-06-10T08:12:54;22.10;99.90
60868;DHT22;46702;48.370;10.794;2023-06-10T08:15:19;22.10;99.90
60868;DHT22;46702;48.370;10.794;2023-06-10T08:17:45;22.00;99.90
60868;DHT22;46702;48.370;10.794;2023-06-10T08:20:11;22.10;99.90
60868;DHT22;46702;48.370;10.794;2023-06-10T08:22:36;22.20;99.90
60868;DHT22;46702;48.370;10.794;2023-06-10T08:25:02;22.10;99.90
60868;DHT22;46702;48.370;10.794;2023-06-10T08:27:28;22.10;99.90
60868;DHT22;46702;48.370;10.794;2023-06-10T08:29:53;22.30;99.90
60868;DHT22;46702;48.370;10.794;2023-06-10T08:32:19;22.30;99.90
60868;DHT22;46702;48.370;10.794;2023-06-10T08:34:45;22.30;99.90
60868;DHT22;46702;48.370;10.794;2023-06-10T08:37:10;22.30;99.90
60868;DHT22;46702;48.370;10.794;2023-06-10T08:39:36;22.60;99.90
60868;DHT22;46702;48.370;10.794;2023-06-10T08:42:17;22.70;99.90
60868;DHT22;46702;48.370;10.794;2023-06-10T08:44:46;22.60;99.90
60868;DHT22;46702;48.370;10.794;2023-06-10T08:47:15;22.80;99.90
60868;DHT22;46702;48.370;10.794;2023-06-10T08:49:47;22.80;99.90
60868;DHT22;46702;48.370;10.794;2023-06-10T08:52:17;22.40;99.90
60868;DHT22;46702;48.370;10.794;2023-06-10T08:54:50;22.40;99.90
60868;DHT22;46702;48.370;10.794;2023-06-10T08:57:18;22.30;99.90
60868;DHT22;46702;48.370;10.794;2023-06-10T08:59:46;22.60;99.90
60868;DHT22;46702;48.370;10.794;2023-06-10T09:02:13;22.70;99.90
60868;DHT22;46702;48.370;10.794;2023-06-10T09:04:42;22.80;99.90
60868;DHT22;46702;48.370;10.794;2023-06-10T09:07:10;22.80;99.90
60868;DHT22;46702;48.370;10.794;2023-06-10T09:09:36;22.50;99.90
60868;DHT22;46702;48.370;10.794;2023-06-10T09:12:03;22.40;99.90
60868;DHT22;46702;48.370;10.794;2023-06-10T09:14:32;22.60;99.90
60868;DHT22;46702;48.370;10.794;2023-06-10T09:16:57;22.80;99.90
60868;DHT22;46702;48.370;10.794;2023-06-10T09:19:31;22.20;99.90
60868;DHT22;46702;48.370;10.794;2023-06-10T09:22:05;21.80;99.90
60868;DHT22;46702;48.370;10.794;2023-06-10T09:24:32;21.70;99.90
60868;DHT22;46702;48.370;10.794;2023-06-10T09:27:05;21.80;99.90
60868;DHT22;46702;48.370;10.794;2023-06-10T09:29:48;21.90;99.90
60868;DHT22;46702;48.370;10.794;2023-06-10T09:32:18;22.30;99.90
60868;DHT22;46702;48.370;10.794;2023-06-10T09:34:44;22.50;99.90
60868;DHT22;46702;48.370;10.794;2023-06-10T09:37:09;22.80;99.90
60868;DHT22;46702;48.370;10.794;2023-06-10T09:39:37;23.20;99.90
60868;DHT22;46702;48.370;10.794;2023-06-10T09:42:16;23.00;99.90
60868;DHT22;46702;48.370;10.794;2023-06-10T09:44:42;22.50;99.90
60868;DHT22;46702;48.370;10.794;2023-06-10T09:47:08;22.40;99.90
60868;DHT22;46702;48.370;10.794;2023-06-10T09:49:37;22.40;99.90
60868;DHT22;46702;48.370;10.794;2023-06-10T09:52:05;22.80;99.90
60868;DHT22;46702;48.370;10.794;2023-06-10T09:54:31;23.20;99.90
60868;DHT22;46702;48.370;10.794;2023-06-10T09:56:57;23.50;99.90
60868;DHT22;46702;48.370;10.794;2023-06-10T09:59:28;23.50;99.90
60868;DHT22;46702;48.370;10.794;2023-06-10T10:01:55;23.50;99.90
60868;DHT22;46702;48.370;10.794;2023-06-10T10:04:27;23.50;99.90
60868;DHT22;46702;48.370;10.794;2023-06-10T10:06:53;23.50;99.90
60868;DHT22;46702;48.370;10.794;2023-06-10T10:09:19;23.50;99.90
60868;DHT22;46702;48.370;10.794;2023-06-10T10:11:46;22.90;99.90
60868;DHT22;46702;48.370;10.794;2023-06-10T10:14:13;22.30;99.90
60868;DHT22;46702;48.370;10.794;2023-06-10T10:16:41;22.00;99.90
60868;DHT22;46702;48.370;10.794;2023-06-10T10:19:14;21.80;99.90
60868;DHT22;46702;48.370;10.794;2023-06-10T10:21:54;22.40;99.90
60868;DHT22;46702;48.370;10.794;2023-06-10T10:24:36;23.10;99.90
60868;DHT22;46702;48.370;10.794;2023-06-10T10:27:12;23.60;99.90
60868;DHT22;46702;48.370;10.794;2023-06-10T10:29:40;23.60;99.90
60868;DHT22;46702;48.370;10.794;2023-06-10T10:32:08;23.60;99.90
60868;DHT22;46702;48.370;10.794;2023-06-10T10:35:06;23.50;99.90
60868;DHT22;46702;48.370;10.794;2023-06-10T10:37:33;23.40;99.90
60868;DHT22;46702;48.370;10.794;2023-06-10T10:40:00;23.10;99.90
60868;DHT22;46702;48.370;10.794;2023-06-10T10:42:26;22.70;99.90
60868;DHT22;46702;48.370;10.794;2023-06-10T10:44:53;22.10;99.90
60868;DHT22;46702;48.370;10.794;2023-06-10T10:47:21;22.00;99.90
60868;DHT22;46702;48.370;10.794;2023-06-10T10:49:50;22.50;99.90
60868;DHT22;46702;48.370;10.794;2023-06-10T10:52:16;23.00;99.90
60868;DHT22;46702;48.370;10.794;2023-06-10T10:54:46;23.30;99.90
60868;DHT22;46702;48.370;10.794;2023-06-10T10:57:13;23.40;99.90
60868;DHT22;46702;48.370;10.794;2023-06-10T11:02:41;23.20;99.90
60868;DHT22;46702;48.370;10.794;2023-06-10T11:05:16;23.00;99.90
60868;DHT22;46702;48.370;10.794;2023-06-10T11:07:53;23.20;99.90
60868;DHT22;46702;48.370;10.794;2023-06-10T11:10:29;23.40;99.90
60868;DHT22;46702;48.370;10.794;2023-06-10T11:12:57;23.40;99.90
60868;DHT22;46702;48.370;10.794;2023-06-10T11:15:28;23.80;99.90
60868;DHT22;46702;48.370;10.794;2023-06-10T11:18:27;23.80;99.90
60868;DHT22;46702;48.370;10.794;2023-06-10T11:21:02;23.80;99.90
60868;DHT22;46702;48.370;10.794;2023-06-10T11:28:39;24.50;99.90
60868;DHT22;46702;48.370;10.794;2023-06-10T11:31:04;24.70;99.90
60868;DHT22;46702;48.370;10.794;2023-06-10T11:33:31;24.50;99.90
60868;DHT22;46702;48.370;10.794;2023-06-10T11:35:57;24.00;99.90
60868;DHT22;46702;48.370;10.794;2023-06-10T11:38:26;23.30;99.90
60868;DHT22;46702;48.370;10.794;2023-06-10T11:40:53;22.90;99.90
60868;DHT22;46702;48.370;10.794;2023-06-10T11:43:19;22.80;99.90
60868;DHT22;46702;48.370;10.794;2023-06-10T11:45:45;23.00;99.90
60868;DHT22;46702;48.370;10.794;2023-06-10T11:48:10;23.50;99.90
60868;DHT22;46702;48.370;10.794;2023-06-10T11:50:37;23.40;99.90
60868;DHT22;46702;48.370;10.794;2023-06-10T11:53:03;23.20;99.90
60868;DHT22;46702;48.370;10.794;2023-06-10T11:55:46;23.10;99.90
60868;DHT22;46702;48.370;10.794;2023-06-10T12:00:59;23.40;99.90
60868;DHT22;46702;48.370;10.794;2023-06-10T12:03:27;24.00;99.90
60868;DHT22;46702;48.370;10.794;2023-06-10T12:06:05;23.80;99.90
60868;DHT22;46702;48.370;10.794;2023-06-10T12:08:32;23.40;99.90
60868;DHT22;46702;48.370;10.794;2023-06-10T12:10:58;23.00;99.90
60868;DHT22;46702;48.370;10.794;2023-06-10T12:13:27;23.10;99.90
60868;DHT22;46702;48.370;10.794;2023-06-10T12:15:53;23.30;99.90
60868;DHT22;46702;48.370;10.794;2023-06-10T12:18:29;23.40;99.90
60868;DHT22;46702;48.370;10.794;2023-06-10T12:20:54;23.60;99.90
60868;DHT22;46702;48.370;10.794;2023-06-10T12:23:20;23.50;99.90
60868;DHT22;46702;48.370;10.794;2023-06-10T12:25:56;23.10;99.90
60868;DHT22;46702;48.370;10.794;2023-06-10T12:28:24;22.60;99.90
60868;DHT22;46702;48.370;10.794;2023-06-10T12:30:50;22.60;99.90
60868;DHT22;46702;48.370;10.794;2023-06-10T12:33:21;22.70;99.90
60868;DHT22;46702;48.370;10.794;2023-06-10T12:35:53;22.60;99.90
60868;DHT22;46702;48.370;10.794;2023-06-10T12:38:22;22.60;99.90
60868;DHT22;46702;48.370;10.794;2023-06-10T12:40:49;23.00;99.90
60868;DHT22;46702;48.370;10.794;2023-06-10T12:43:25;23.50;99.90
60868;DHT22;46702;48.370;10.794;2023-06-10T12:45:51;23.70;99.90
60868;DHT22;46702;48.370;10.794;2023-06-10T12:48:24;24.00;99.90
60868;DHT22;46702;48.370;10.794;2023-06-10T12:50:57;24.00;99.90
60868;DHT22;46702;48.370;10.794;2023-06-10T12:53:24;24.10;99.90
60868;DHT22;46702;48.370;10.794;2023-06-10T12:55:50;24.00;99.90
60868;DHT22;46702;48.370;10.794;2023-06-10T12:58:16;24.10;99.90
60868;DHT22;46702;48.370;10.794;2023-06-10T13:00:42;24.30;99.90
60868;DHT22;46702;48.370;10.794;2023-06-10T13:03:09;24.20;99.90
60868;DHT22;46702;48.370;10.794;2023-06-10T13:05:38;24.30;99.90
60868;DHT22;46702;48.370;10.794;2023-06-10T13:08:07;24.40;99.90
60868;DHT22;46702;48.370;10.794;2023-06-10T13:10:33;24.30;99.90
60868;DHT22;46702;48.370;10.794;2023-06-10T13:13:00;24.40;99.90
60868;DHT22;46702;48.370;10.794;2023-06-10T13:15:27;24.00;99.90
60868;DHT22;46702;48.370;10.794;2023-06-10T13:17:52;24.00;99.90
60868;DHT22;46702;48.370;10.794;2023-06-10T13:20:18;24.20;99.90
60868;DHT22;46702;48.370;10.794;2023-06-10T13:22:44;24.20;99.90
60868;DHT22;46702;48.370;10.794;2023-06-10T13:25:10;24.20;99.90
60868;DHT22;46702;48.370;10.794;2023-06-10T13:27:36;24.30;99.90
60868;DHT22;46702;48.370;10.794;2023-06-10T13:30:08;24.50;99.90
60868;DHT22;46702;48.370;10.794;2023-06-10T13:32:36;24.70;99.90
60868;DHT22;46702;48.370;10.794;2023-06-10T13:35:01;24.90;99.90
60868;DHT22;46702;48.370;10.794;2023-06-10T13:37:28;24.60;99.90
60868;DHT22;46702;48.370;10.794;2023-06-10T13:39:54;24.10;99.90
60868;DHT22;46702;48.370;10.794;2023-06-10T13:42:20;24.20;99.90
60868;DHT22;46702;48.370;10.794;2023-06-10T13:44:46;24.20;99.90
60868;DHT22;46702;48.370;10.794;2023-06-10T13:47:14;24.20;99.90
60868;DHT22;46702;48.370;10.794;2023-06-10T13:49:40;24.30;99.90
60868;DHT22;46702;48.370;10.794;2023-06-10T13:52:07;24.60;99.90
60868;DHT22;46702;48.370;10.794;2023-06-10T13:54:33;24.50;99.90
60868;DHT22;46702;48.370;10.794;2023-06-10T13:57:01;24.50;99.90
60868;DHT22;46702;48.370;10.794;2023-06-10T13:59:27;24.60;99.90
60868;DHT22;46702;48.370;10.794;2023-06-10T14:01:53;24.70;99.90
60868;DHT22;46702;48.370;10.794;2023-06-10T14:04:19;24.70;99.90
60868;DHT22;46702;48.370;10.794;2023-06-10T14:06:48;24.70;99.90
60868;DHT22;46702;48.370;10.794;2023-06-10T14:09:14;24.70;99.90
60868;DHT22;46702;48.370;10.794;2023-06-10T14:11:45;24.60;99.90
60868;DHT22;46702;48.370;10.794;2023-06-10T14:14:11;24.40;99.90
60868;DHT22;46702;48.370;10.794;2023-06-10T14:16:42;24.30;99.90
60868;DHT22;46702;48.370;10.794;2023-06-10T14:19:10;24.20;99.90
60868;DHT22;46702;48.370;10.794;2023-06-10T14:21:38;24.20;99.90
60868;DHT22;46702;48.370;10.794;2023-06-10T14:24:12;24.40;99.90
60868;DHT22;46702;48.370;10.794;2023-06-10T14:26:44;24.40;99.90
60868;DHT22;46702;48.370;10.794;2023-06-10T14:29:10;24.50;99.90
60868;DHT22;46702;48.370;10.794;2023-06-10T14:31:44;24.60;99.90
60868;DHT22;46702;48.370;10.794;2023-06-10T14:34:10;24.70;99.90
60868;DHT22;46702;48.370;10.794;2023-06-10T14:36:39;24.60;99.90
60868;DHT22;46702;48.370;10.794;2023-06-10T14:39:09;24.50;99.90
60868;DHT22;46702;48.370;10.794;2023-06-10T14:41:35;24.40;99.90
60868;DHT22;46702;48.370;10.794;2023-06-10T14:44:10;24.60;99.90
60868;DHT22;46702;48.370;10.794;2023-06-10T14:46:35;24.70;99.90
60868;DHT22;46702;48.370;10.794;2023-06-10T14:49:04;24.70;99.90
60868;DHT22;46702;48.370;10.794;2023-06-10T14:51:29;24.80;99.90
60868;DHT22;46702;48.370;10.794;2023-06-10T14:53:56;24.90;99.90
60868;DHT22;46702;48.370;10.794;2023-06-10T14:56:21;24.50;99.90
60868;DHT22;46702;48.370;10.794;2023-06-10T14:58:47;24.40;99.90
60868;DHT22;46702;48.370;10.794;2023-06-10T15:01:13;24.50;99.90
60868;DHT22;46702;48.370;10.794;2023-06-10T15:03:38;24.50;99.90
60868;DHT22;46702;48.370;10.794;2023-06-10T15:06:08;24.60;99.90
60868;DHT22;46702;48.370;10.794;2023-06-10T15:08:33;24.70;99.90
60868;DHT22;46702;48.370;10.794;2023-06-10T15:11:02;24.90;99.90
60868;DHT22;46702;48.370;10.794;2023-06-10T15:13:29;25.00;99.90
60868;DHT22;46702;48.370;10.794;2023-06-10T15:15:55;25.00;99.90
60868;DHT22;46702;48.370;10.794;2023-06-10T15:18:23;25.00;99.90
60868;DHT22;46702;48.370;10.794;2023-06-10T15:20:49;25.20;99.90
60868;DHT22;46702;48.370;10.794;2023-06-10T15:23:15;25.10;99.90
60868;DHT22;46702;48.370;10.794;2023-06-10T15:25:41;25.10;99.90
60868;DHT22;46702;48.370;10.794;2023-06-10T15:28:07;25.20;99.90
60868;DHT22;46702;48.370;10.794;2023-06-10T15:30:33;25.10;99.90
60868;DHT22;46702;48.370;10.794;2023-06-10T15:32:59;24.80;99.90